Terminal Aerodrome Forecast
Issued by NWS

Home | Current Version | Previous Version | Graphics & Text | Print | Product List | Glossary On
Versions: 1 2 3 4 5 6 7 8 9 10 11 12 13 14 15 16 17 18 19 20 21 22
000
FTUS43 KICT 250115 AAA
TAFHUT
TAF AMD
KHUT 250115Z 2501/2524 18017G26KT P6SM VCTS SCT035CB OVC130
      TEMPO 2502/2504 VRB20G35KT 4SM TSRA OVC030CB
     FM250600 29010KT P6SM SCT080 BKN250
     FM252100 03009KT P6SM SCT040 BKN100=

USA.gov is the U.S. government's official web portal to all federal, state and local government web resources and services.